Time;durP1;ratioP1;P1;durP2;ratioP2;P2;SDS_P1;SDS_P2;PMS_P1;PMS_P2;Temp;Humidity;BMP_temperature;BMP_pressure;BME280_temperature;BME280_humidity;BME280_pressure;Samples;Min_cycle;Max_cycle;Signal;HPM_P1;HPM_P2
2022/10/23 00:02:55;;;;;;;10.32;8.43;;;23.00;99.90;;;;;;6023830;29;88750;-67
2022/10/23 00:05:57;;;;;;;10.98;8.55;;;23.00;99.90;;;;;;6016856;29;89208;-67
2022/10/23 00:08:59;;;;;;;9.75;8.48;;;23.00;99.90;;;;;;6023167;28;89141;-67
2022/10/23 00:12:01;;;;;;;9.65;8.60;;;23.00;99.90;;;;;;6023206;28;89975;-67
2022/10/23 00:15:04;;;;;;;9.43;8.48;;;23.00;99.90;;;;;;6032635;29;89353;-67
2022/10/23 00:18:07;;;;;;;12.05;7.97;;;23.00;99.90;;;;;;6026561;28;89120;-67
2022/10/23 00:21:12;;;;;;;10.85;8.32;;;23.00;99.90;;;;;;6017655;29;89119;-67
2022/10/23 00:24:14;;;;;;;10.95;9.23;;;23.00;99.90;;;;;;6026849;29;89410;-67
2022/10/23 00:27:16;;;;;;;9.63;8.48;;;23.00;99.90;;;;;;6029516;28;89219;-67
2022/10/23 00:30:18;;;;;;;9.20;8.20;;;23.00;99.90;;;;;;6010040;29;89559;-67
2022/10/23 00:33:21;;;;;;;9.07;8.18;;;23.00;99.90;;;;;;6033642;28;88464;-66
2022/10/23 00:36:24;;;;;;;12.82;8.45;;;23.00;99.90;;;;;;6022257;28;88308;-66
2022/10/23 00:39:26;;;;;;;10.57;8.50;;;23.00;99.90;;;;;;6018998;29;89029;-66
2022/10/23 00:42:28;;;;;;;10.75;8.85;;;23.00;99.90;;;;;;6023905;29;89962;-67
2022/10/23 00:45:32;;;;;;;13.30;9.18;;;23.00;99.90;;;;;;6025241;28;89273;-67
2022/10/23 00:48:35;;;;;;;12.60;8.20;;;23.00;99.90;;;;;;6014310;29;88427;-67
2022/10/23 00:51:41;;;;;;;11.80;8.88;;;23.00;99.90;;;;;;6010936;29;89074;-67
2022/10/23 00:54:44;;;;;;;11.50;8.90;;;23.00;99.90;;;;;;6016734;29;89429;-67
2022/10/23 00:57:48;;;;;;;10.80;8.48;;;23.00;99.90;;;;;;6015990;29;89066;-67
2022/10/23 01:00:52;;;;;;;11.13;8.50;;;23.00;99.90;;;;;;6027571;29;88858;-67
2022/10/23 01:03:56;;;;;;;12.88;8.18;;;23.00;99.90;;;;;;6016502;29;88413;-67
2022/10/23 04:40:12;;;;;;;6.22;5.63;;;22.70;99.90;;;;;;6043098;28;89782;-96
2022/10/23 04:43:14;;;;;;;6.07;5.47;;;22.70;99.90;;;;;;6044278;28;89449;-96
2022/10/23 04:46:16;;;;;;;6.55;5.75;;;22.70;99.90;;;;;;6041722;28;88082;-96
2022/10/23 04:49:19;;;;;;;6.40;5.80;;;22.70;99.90;;;;;;6056830;28;90212;-96
2022/10/23 04:52:21;;;;;;;6.32;5.55;;;22.70;99.90;;;;;;6043282;28;89553;-96
2022/10/23 04:55:25;;;;;;;7.35;6.15;;;22.70;99.90;;;;;;6043288;28;88359;-96
2022/10/23 04:58:29;;;;;;;6.60;5.90;;;22.70;99.90;;;;;;6042604;28;91118;-96
2022/10/23 05:01:37;;;;;;;6.10;5.50;;;22.80;99.90;;;;;;6042972;28;89516;-96
2022/10/23 05:04:39;;;;;;;6.10;5.53;;;22.80;99.90;;;;;;6041674;28;90401;-96
2022/10/23 05:07:41;;;;;;;6.38;5.78;;;22.80;99.90;;;;;;6041782;28;89429;-96
2022/10/23 05:10:45;;;;;;;6.07;5.47;;;22.80;99.90;;;;;;6041982;28;89267;-96
2022/10/23 05:13:47;;;;;;;6.38;5.70;;;22.80;99.90;;;;;;6042485;29;89478;-96
2022/10/23 05:16:56;;;;;;;6.78;5.97;;;22.80;99.90;;;;;;6041903;29;89093;-96
2022/10/23 05:20:00;;;;;;;6.25;5.65;;;22.80;99.90;;;;;;6041790;28;87059;-96
2022/10/23 05:23:06;;;;;;;6.95;6.13;;;22.80;99.90;;;;;;6041549;28;89515;-95
2022/10/23 05:26:13;;;;;;;5.90;5.30;;;22.80;99.90;;;;;;6042588;28;88630;-96
2022/10/23 05:29:15;;;;;;;6.43;5.70;;;22.80;99.90;;;;;;6041917;28;89143;-96
2022/10/23 05:32:18;;;;;;;6.45;5.60;;;22.80;99.90;;;;;;6041942;28;88431;-96
2022/10/23 05:35:23;;;;;;;6.75;6.05;;;22.80;99.90;;;;;;6040789;28;90532;-96
2022/10/23 05:38:27;;;;;;;6.45;5.85;;;22.80;99.90;;;;;;6041234;28;89737;-96
2022/10/23 05:41:31;;;;;;;6.07;5.47;;;22.90;99.90;;;;;;6042072;28;89632;-96
2022/10/23 05:44:34;;;;;;;6.47;5.88;;;22.80;99.90;;;;;;6041971;28;89437;-96
2022/10/23 05:47:36;;;;;;;7.22;6.53;;;22.90;99.90;;;;;;6041236;29;89132;-96
2022/10/23 05:50:42;;;;;;;6.65;6.05;;;22.90;99.90;;;;;;6041495;29;89037;-96
2022/10/23 05:53:44;;;;;;;6.90;6.20;;;22.80;99.90;;;;;;6041149;28;89366;-96
2022/10/23 05:56:50;;;;;;;7.72;6.65;;;22.80;99.90;;;;;;6041679;28;88334;-96
2022/10/23 05:59:52;;;;;;;6.93;6.22;;;22.80;99.90;;;;;;6041539;28;89018;-96
2022/10/23 06:02:54;;;;;;;6.60;5.90;;;22.80;99.90;;;;;;6041243;28;89510;-96
2022/10/23 06:05:59;;;;;;;7.38;6.38;;;22.90;99.90;;;;;;6040606;29;90035;-95
2022/10/23 06:09:01;;;;;;;7.35;6.50;;;22.80;99.90;;;;;;6040759;28;89660;-96
2022/10/23 06:12:05;;;;;;;6.80;6.20;;;22.90;99.90;;;;;;6040866;28;89478;-96
2022/10/23 06:15:11;;;;;;;6.30;5.70;;;22.90;99.90;;;;;;6040480;28;89417;-96
2022/10/23 06:18:13;;;;;;;6.97;6.28;;;22.90;99.90;;;;;;6039710;28;88404;-96
2022/10/23 06:24:40;;;;;;;6.47;5.82;;;22.80;99.90;;;;;;6053319;29;89365;-96
2022/10/23 06:27:44;;;;;;;6.65;5.95;;;22.80;99.90;;;;;;6042784;28;87514;-95
2022/10/23 06:30:53;;;;;;;6.88;6.18;;;22.90;99.90;;;;;;6052691;28;88277;-96
2022/10/23 06:37:21;;;;;;;6.30;5.70;;;22.90;99.90;;;;;;6041069;29;91501;-95
2022/10/23 06:40:33;;;;;;;6.53;5.90;;;22.90;99.90;;;;;;6049226;29;89413;-96
2022/10/23 06:43:37;;;;;;;6.97;6.28;;;22.90;99.90;;;;;;6049060;28;89430;-95
2022/10/23 06:49:55;;;;;;;6.70;6.05;;;22.90;99.90;;;;;;6051197;29;89609;-96
2022/10/23 06:59:32;;;;;;;6.45;5.85;;;22.80;99.90;;;;;;6045912;29;89015;-95
2022/10/23 07:02:37;;;;;;;6.65;5.95;;;22.90;99.90;;;;;;6046374;28;89578;-95
2022/10/23 07:05:39;;;;;;;6.05;5.45;;;22.90;99.90;;;;;;6045459;28;88435;-95
2022/10/23 07:11:59;;;;;;;6.10;5.50;;;22.80;99.90;;;;;;6050637;28;89334;-95
2022/10/23 07:15:04;;;;;;;6.18;5.57;;;22.90;99.90;;;;;;6042185;28;89161;-95
2022/10/23 07:18:13;;;;;;;6.10;5.50;;;22.80;99.90;;;;;;6045306;28;89855;-96
2022/10/23 07:21:27;;;;;;;6.40;5.80;;;22.90;99.90;;;;;;6049493;28;88584;-95
2022/10/23 07:27:45;;;;;;;6.38;5.70;;;22.90;99.90;;;;;;6055002;29;90413;-95
2022/10/23 07:30:58;;;;;;;6.43;5.70;;;22.90;99.90;;;;;;6046271;28;88312;-95
2022/10/23 07:34:01;;;;;;;5.95;5.20;;;22.90;99.90;;;;;;6046387;28;88012;-96
2022/10/23 07:37:03;;;;;;;6.07;5.47;;;22.90;99.90;;;;;;6043156;28;89446;-95
2022/10/23 07:40:09;;;;;;;5.80;5.20;;;22.90;99.90;;;;;;6049636;28;90025;-96
2022/10/23 07:46:38;;;;;;;6.07;5.20;;;22.90;99.90;;;;;;6050805;29;89477;-95
2022/10/23 07:49:41;;;;;;;5.85;5.25;;;22.90;99.90;;;;;;6051804;28;88474;-95
2022/10/23 07:52:46;;;;;;;5.82;5.22;;;22.90;99.90;;;;;;6051102;28;89121;-96
2022/10/23 07:55:55;;;;;;;6.03;5.43;;;22.90;99.90;;;;;;6051588;28;89505;-95
2022/10/23 07:59:02;;;;;;;5.93;5.32;;;22.90;99.90;;;;;;6050140;29;89353;-95
2022/10/23 08:05:43;;;;;;;5.68;5.03;;;22.90;99.90;;;;;;6046722;28;90025;-95
2022/10/23 08:12:04;;;;;;;5.22;4.72;;;22.90;99.90;;;;;;6052408;28;90527;-94
2022/10/23 08:21:54;;;;;;;5.70;5.10;;;22.90;99.90;;;;;;6050848;29;90452;-93
2022/10/23 08:35:14;;;;;;;5.32;4.82;;;22.90;99.90;;;;;;6055376;28;86495;-96
2022/10/23 08:41:44;;;;;;;5.68;4.95;;;22.90;99.90;;;;;;6048409;29;89697;-95
2022/10/23 08:44:55;;;;;;;6.90;5.30;;;22.90;99.90;;;;;;6043028;28;90655;-96
2022/10/23 08:48:05;;;;;;;10.35;6.03;;;22.90;99.90;;;;;;6044290;29;89461;-96
2022/10/23 08:51:14;;;;;;;5.47;4.90;;;23.00;99.90;;;;;;6043133;28;89353;-95
2022/10/23 08:54:22;;;;;;;58.55;30.33;;;22.90;99.90;;;;;;6044003;28;89342;-96
2022/10/23 08:57:33;;;;;;;169.52;101.15;;;22.90;99.90;;;;;;6044463;28;89067;-95
2022/10/23 09:00:35;;;;;;;63.80;39.40;;;22.90;99.90;;;;;;6044569;28;87964;-95
2022/10/23 09:03:37;;;;;;;23.23;14.43;;;23.00;99.90;;;;;;6042010;28;89000;-93
2022/10/23 09:06:46;;;;;;;11.48;9.07;;;23.00;99.90;;;;;;6041089;28;88750;-94
2022/10/23 09:10:10;;;;;;;12.50;8.70;;;23.00;99.90;;;;;;6041036;28;88215;-95
2022/10/23 09:13:31;;;;;;;9.63;7.10;;;23.00;99.90;;;;;;6041572;29;89106;-96
2022/10/23 09:16:47;;;;;;;8.32;5.90;;;23.00;99.90;;;;;;6041369;29;90001;-96
2022/10/23 09:19:55;;;;;;;8.07;5.38;;;23.00;99.90;;;;;;6044799;28;87562;-96
2022/10/23 09:23:01;;;;;;;7.47;4.72;;;22.90;99.90;;;;;;6046875;28;88312;-96
2022/10/23 09:26:12;;;;;;;9.05;4.97;;;22.90;99.90;;;;;;6042858;28;90191;-96
2022/10/23 09:29:24;;;;;;;6.40;4.35;;;22.90;99.90;;;;;;6044023;29;87965;-96
2022/10/23 09:32:38;;;;;;;7.20;4.65;;;22.80;99.90;;;;;;6044769;28;88869;-96
2022/10/23 09:35:54;;;;;;;5.53;3.72;;;22.90;99.90;;;;;;6045336;29;88308;-96
2022/10/23 09:38:59;;;;;;;5.38;3.78;;;22.90;98.90;;;;;;6043973;28;88762;-96
2022/10/23 09:42:20;;;;;;;5.63;3.80;;;22.80;98.80;;;;;;6045630;28;88464;-96
2022/10/23 09:45:24;;;;;;;6.05;3.90;;;22.80;99.20;;;;;;6041241;28;88042;-96
2022/10/23 09:48:27;;;;;;;7.13;3.65;;;22.90;99.40;;;;;;6039567;28;90083;-96
2022/10/23 09:51:29;;;;;;;5.45;4.03;;;22.90;99.50;;;;;;6042344;28;88552;-96
2022/10/23 09:54:35;;;;;;;6.38;4.03;;;22.90;99.70;;;;;;6041359;28;89296;-96
2022/10/23 09:58:06;;;;;;;7.63;4.30;;;22.90;99.90;;;;;;6042116;29;88352;-95
2022/10/23 10:01:27;;;;;;;5.55;3.88;;;22.90;99.90;;;;;;6043382;28;88339;-96
2022/10/23 10:04:35;;;;;;;7.10;4.00;;;22.90;99.90;;;;;;6042267;28;89085;-96
2022/10/23 10:07:38;;;;;;;7.43;3.85;;;22.90;99.90;;;;;;6040138;28;87229;-96
2022/10/23 10:10:49;;;;;;;7.40;3.85;;;23.00;99.90;;;;;;6042559;28;88673;-96
2022/10/23 10:14:12;;;;;;;7.72;3.80;;;22.90;99.90;;;;;;6040725;28;90231;-96
2022/10/23 10:17:21;;;;;;;9.50;5.32;;;23.00;99.90;;;;;;6040422;29;87991;-96
2022/10/23 10:20:54;;;;;;;10.38;5.03;;;23.00;99.90;;;;;;6040491;28;90343;-96
2022/10/23 10:24:03;;;;;;;16.50;6.82;;;23.00;99.90;;;;;;6040911;28;89314;-96
2022/10/23 10:27:21;;;;;;;15.00;6.35;;;23.00;99.90;;;;;;6040980;28;88416;-96
2022/10/23 10:30:27;;;;;;;12.13;6.05;;;23.00;99.90;;;;;;6042766;29;87268;-96
2022/10/23 10:33:39;;;;;;;11.13;5.35;;;23.00;99.90;;;;;;6039890;28;88960;-96
2022/10/23 10:36:49;;;;;;;9.98;5.20;;;23.10;99.90;;;;;;6041306;29;89432;-96
2022/10/23 10:40:03;;;;;;;9.02;5.15;;;23.10;99.90;;;;;;6039874;28;89827;-96
2022/10/23 10:43:17;;;;;;;8.73;5.07;;;23.10;99.90;;;;;;6041823;28;88042;-96
2022/10/23 10:46:31;;;;;;;9.23;4.70;;;23.10;99.90;;;;;;6041682;28;89548;-96
2022/10/23 10:49:38;;;;;;;12.07;5.07;;;23.10;99.90;;;;;;6041500;29;87255;-96
2022/10/23 10:52:51;;;;;;;8.27;4.70;;;23.10;99.90;;;;;;6040892;28;91045;-96
2022/10/23 10:55:57;;;;;;;13.90;6.70;;;23.10;99.90;;;;;;6042902;28;88982;-96
2022/10/23 10:59:02;;;;;;;12.93;6.38;;;23.20;99.90;;;;;;6041720;28;90746;-95
2022/10/23 11:02:26;;;;;;;13.25;6.40;;;23.20;99.90;;;;;;6039041;28;88839;-95
2022/10/23 11:05:36;;;;;;;14.63;6.18;;;23.30;99.90;;;;;;6039042;28;89502;-96
2022/10/23 11:08:40;;;;;;;12.18;5.88;;;23.20;99.90;;;;;;6040072;28;89597;-95
2022/10/23 11:11:43;;;;;;;13.60;5.57;;;23.20;99.90;;;;;;6040349;29;88500;-94
2022/10/23 11:14:45;;;;;;;12.23;5.60;;;23.30;99.90;;;;;;6039543;29;87740;-96
2022/10/23 11:17:59;;;;;;;12.48;5.50;;;23.30;99.90;;;;;;6040969;29;88244;-96
2022/10/23 11:21:12;;;;;;;13.57;5.78;;;23.20;99.90;;;;;;6042366;28;90161;-96
2022/10/23 11:24:48;;;;;;;13.95;5.93;;;23.20;99.90;;;;;;6041179;28;90306;-96
2022/10/23 11:28:19;;;;;;;12.13;5.97;;;23.20;99.90;;;;;;6043357;29;87621;-96
2022/10/23 11:31:34;;;;;;;11.73;5.47;;;23.20;99.90;;;;;;6044121;29;89353;-96
2022/10/23 11:35:06;;;;;;;9.63;5.32;;;23.20;99.90;;;;;;6043156;28;89205;-96
2022/10/23 11:38:16;;;;;;;9.27;5.05;;;23.30;99.90;;;;;;6041841;29;89327;-96
2022/10/23 11:41:22;;;;;;;9.75;5.05;;;23.20;99.90;;;;;;6043787;29;88914;-96
2022/10/23 11:44:41;;;;;;;9.75;5.07;;;23.20;99.90;;;;;;6043460;28;87958;-96
2022/10/23 11:47:43;;;;;;;13.27;5.50;;;23.20;99.90;;;;;;6039092;28;88272;-96
2022/10/23 11:50:57;;;;;;;10.57;5.38;;;23.20;99.90;;;;;;6040432;29;89127;-96
2022/10/23 11:54:41;;;;;;;12.65;5.57;;;23.20;99.90;;;;;;6044662;29;89102;-95
2022/10/23 11:58:09;;;;;;;9.95;4.93;;;23.10;99.90;;;;;;6044654;28;89990;-95
2022/10/23 12:01:37;;;;;;;9.75;5.18;;;23.20;99.90;;;;;;6043322;28;87013;-95
2022/10/23 12:04:48;;;;;;;10.85;5.18;;;23.10;99.90;;;;;;6044651;28;88235;-95
2022/10/23 12:07:55;;;;;;;12.75;5.38;;;23.20;99.90;;;;;;6043787;28;88063;-95
2022/10/23 12:11:00;;;;;;;10.10;5.18;;;23.20;99.90;;;;;;6043119;28;89601;-94
2022/10/23 12:14:02;;;;;;;10.45;4.95;;;23.20;99.90;;;;;;6043526;29;88525;-95
2022/10/23 12:17:36;;;;;;;9.98;5.05;;;23.20;99.90;;;;;;6044010;28;88508;-95
2022/10/23 12:20:50;;;;;;;8.43;5.25;;;23.30;99.90;;;;;;6043089;28;87415;-95
2022/10/23 12:24:21;;;;;;;9.27;5.05;;;23.20;99.90;;;;;;6043372;28;89415;-96
2022/10/23 12:27:32;;;;;;;10.88;5.22;;;23.30;99.90;;;;;;6043263;29;87881;-95
2022/10/23 12:30:42;;;;;;;8.93;5.28;;;23.20;99.90;;;;;;6043010;29;90550;-95
2022/10/23 12:33:59;;;;;;;10.55;5.35;;;23.30;99.90;;;;;;6044096;28;87835;-95
2022/10/23 12:37:16;;;;;;;11.15;5.43;;;23.30;99.90;;;;;;6043466;29;89730;-95
2022/10/23 12:40:21;;;;;;;9.32;5.50;;;23.30;99.90;;;;;;6043553;28;89368;-95
2022/10/23 12:43:29;;;;;;;9.40;5.07;;;23.20;99.90;;;;;;6043371;28;89332;-95
2022/10/23 12:46:34;;;;;;;9.18;5.18;;;23.30;99.90;;;;;;6043225;28;89077;-95
2022/10/23 12:49:36;;;;;;;9.20;5.05;;;23.30;99.90;;;;;;6042971;28;89377;-95
2022/10/23 12:52:39;;;;;;;8.68;5.22;;;23.20;99.90;;;;;;6043177;29;88883;-95
2022/10/23 12:55:53;;;;;;;8.57;5.38;;;23.30;99.90;;;;;;6042565;28;88324;-94
2022/10/23 12:58:59;;;;;;;11.32;5.68;;;23.30;99.90;;;;;;6043333;28;89449;-96
2022/10/23 13:02:01;;;;;;;11.48;5.75;;;23.20;99.90;;;;;;6042917;28;90275;-94
2022/10/23 13:05:07;;;;;;;10.23;5.60;;;23.20;99.90;;;;;;6041589;28;89033;-95
2022/10/23 13:08:11;;;;;;;8.63;5.20;;;23.20;99.90;;;;;;6042823;28;89444;-95
2022/10/23 13:11:18;;;;;;;11.32;5.40;;;23.20;99.90;;;;;;6042973;28;89012;-94
2022/10/23 13:14:33;;;;;;;9.25;5.20;;;23.20;99.90;;;;;;6042332;28;89104;-95
2022/10/23 13:17:38;;;;;;;9.73;5.60;;;23.20;99.90;;;;;;6041511;29;89529;-95
2022/10/23 13:20:45;;;;;;;9.35;5.53;;;23.20;99.90;;;;;;6044746;29;88868;-95
2022/10/23 13:23:48;;;;;;;10.93;5.50;;;23.20;99.90;;;;;;6046466;28;88650;-95
2022/10/23 13:26:51;;;;;;;9.85;5.75;;;23.20;99.90;;;;;;6042771;29;89471;-94
2022/10/23 13:29:57;;;;;;;10.13;5.68;;;23.20;99.90;;;;;;6041864;28;89557;-95
2022/10/23 13:32:59;;;;;;;8.57;5.70;;;23.20;99.90;;;;;;6041515;28;90191;-95
2022/10/23 13:36:04;;;;;;;9.38;5.38;;;23.20;99.90;;;;;;6042439;28;89330;-95
2022/10/23 13:39:16;;;;;;;10.18;5.65;;;23.20;99.90;;;;;;6042843;28;92002;-95
2022/10/23 13:42:20;;;;;;;10.65;5.78;;;23.20;99.90;;;;;;6042564;29;88119;-95
2022/10/23 13:45:24;;;;;;;7.75;5.25;;;23.20;99.90;;;;;;6043126;28;89581;-95
2022/10/23 13:48:31;;;;;;;8.65;5.53;;;23.20;99.90;;;;;;6042181;28;87388;-95
2022/10/23 13:51:42;;;;;;;7.65;5.28;;;23.20;99.90;;;;;;6041474;29;87650;-95
2022/10/23 13:54:44;;;;;;;9.82;5.90;;;23.10;99.90;;;;;;6042996;28;89920;-95
2022/10/23 13:57:48;;;;;;;8.32;5.25;;;23.20;99.90;;;;;;6042120;28;88215;-94
2022/10/23 14:00:52;;;;;;;9.60;5.80;;;23.20;99.90;;;;;;6042408;28;89230;-95
2022/10/23 14:03:57;;;;;;;9.40;5.57;;;23.20;99.90;;;;;;6044502;29;89986;-95
2022/10/23 14:07:01;;;;;;;10.43;5.95;;;23.20;99.90;;;;;;6044658;28;90341;-95
2022/10/23 14:10:06;;;;;;;9.55;5.90;;;23.20;99.90;;;;;;6045232;28;88358;-95
2022/10/23 14:13:10;;;;;;;10.32;5.88;;;23.20;99.90;;;;;;6041664;29;88874;-95
2022/10/23 14:16:14;;;;;;;9.57;6.22;;;23.20;99.90;;;;;;6042287;28;87993;-95
2022/10/23 14:19:17;;;;;;;10.90;5.88;;;23.10;99.90;;;;;;6060323;28;86873;-95
2022/10/23 14:22:20;;;;;;;8.55;5.95;;;23.10;99.90;;;;;;6041156;28;88969;-95
2022/10/23 14:25:23;;;;;;;9.98;6.22;;;23.10;99.90;;;;;;6042572;29;88329;-95
2022/10/23 14:28:26;;;;;;;76.93;24.00;;;23.10;99.90;;;;;;6044379;28;88052;-96
2022/10/23 14:31:31;;;;;;;100.70;27.40;;;23.10;99.90;;;;;;6043256;28;89188;-96
2022/10/23 14:34:40;;;;;;;48.15;15.95;;;23.20;99.90;;;;;;6040693;28;90265;-96
2022/10/23 14:37:42;;;;;;;16.88;7.55;;;23.30;99.90;;;;;;6046075;28;88109;-96
2022/10/23 14:40:44;;;;;;;14.07;6.32;;;23.30;99.90;;;;;;6049637;29;87092;-96
2022/10/23 14:43:48;;;;;;;15.10;6.20;;;23.30;99.90;;;;;;6044776;29;87756;-96
2022/10/23 14:46:51;;;;;;;10.40;5.97;;;23.30;99.90;;;;;;6041078;28;88260;-96
2022/10/23 14:49:55;;;;;;;12.63;6.07;;;23.30;99.90;;;;;;6043627;28;87056;-96
2022/10/23 14:52:57;;;;;;;11.38;6.05;;;23.30;99.90;;;;;;6041033;28;89721;-96
2022/10/23 14:56:02;;;;;;;11.40;5.57;;;23.30;99.90;;;;;;6041099;29;86606;-96
2022/10/23 14:59:14;;;;;;;8.63;4.95;;;23.30;99.90;;;;;;6046974;28;88298;-96
2022/10/23 15:02:17;;;;;;;10.45;5.25;;;23.30;99.90;;;;;;6046746;28;88418;-96
2022/10/23 15:05:20;;;;;;;9.40;5.32;;;23.30;99.90;;;;;;6043010;28;89760;-96
2022/10/23 15:08:26;;;;;;;10.65;5.82;;;23.30;99.90;;;;;;6041962;28;88021;-96
2022/10/23 15:11:29;;;;;;;10.57;6.75;;;23.30;99.90;;;;;;6045383;28;87985;-96
2022/10/23 15:14:35;;;;;;;10.18;5.88;;;23.30;99.90;;;;;;6041233;29;89540;-96
2022/10/23 15:17:41;;;;;;;7.75;5.55;;;23.30;99.90;;;;;;6040244;28;89183;-96
2022/10/23 15:20:51;;;;;;;11.70;6.15;;;23.30;99.90;;;;;;6040516;29;91725;-96
2022/10/23 15:23:54;;;;;;;11.43;5.88;;;23.30;99.90;;;;;;6040013;28;89282;-95
2022/10/23 15:26:58;;;;;;;11.38;5.93;;;23.30;99.90;;;;;;6042226;28;87256;-96
2022/10/23 15:30:03;;;;;;;11.38;6.20;;;23.30;99.90;;;;;;6044927;28;89316;-96
2022/10/23 15:33:05;;;;;;;9.80;5.70;;;23.30;99.90;;;;;;6043751;28;88090;-96
2022/10/23 15:36:08;;;;;;;9.75;5.72;;;23.30;99.90;;;;;;6044490;28;91586;-96
2022/10/23 15:39:12;;;;;;;9.20;5.47;;;23.40;99.90;;;;;;6044305;28;88258;-95
2022/10/23 15:42:14;;;;;;;9.38;5.47;;;23.40;99.90;;;;;;6044550;28;87954;-96
2022/10/23 15:45:19;;;;;;;10.15;5.65;;;23.40;99.90;;;;;;6043787;28;89095;-96
2022/10/23 15:48:21;;;;;;;9.43;5.65;;;23.40;99.90;;;;;;6043950;28;87944;-96
2022/10/23 15:51:23;;;;;;;8.63;5.65;;;23.40;99.90;;;;;;6043630;29;89318;-96
2022/10/23 15:54:26;;;;;;;7.97;5.55;;;23.40;99.90;;;;;;6045695;28;89412;-96
2022/10/23 15:57:30;;;;;;;9.00;5.35;;;23.30;99.90;;;;;;6045585;28;87790;-96
2022/10/23 16:00:35;;;;;;;8.43;5.68;;;23.30;99.90;;;;;;6043669;28;89467;-96
2022/10/23 16:03:39;;;;;;;8.30;5.35;;;23.30;99.90;;;;;;6044108;28;90675;-96
2022/10/23 16:06:42;;;;;;;9.88;5.82;;;23.30;99.90;;;;;;6042633;28;89549;-95
2022/10/23 16:09:45;;;;;;;8.25;5.32;;;23.30;99.90;;;;;;6045463;28;88320;-96
2022/10/23 16:12:47;;;;;;;7.85;5.32;;;23.30;99.90;;;;;;6045710;28;88435;-96
2022/10/23 16:15:52;;;;;;;7.68;4.97;;;23.30;99.90;;;;;;6043347;28;89507;-96
2022/10/23 16:18:55;;;;;;;9.20;5.35;;;23.30;99.90;;;;;;6043295;29;90352;-95
2022/10/23 16:21:58;;;;;;;7.57;5.18;;;23.30;99.90;;;;;;6042751;28;87382;-96
2022/10/23 16:25:02;;;;;;;8.00;5.25;;;23.30;99.90;;;;;;6042900;29;89118;-96
2022/10/23 16:28:07;;;;;;;8.60;5.30;;;23.30;99.90;;;;;;6044000;28;86412;-96
2022/10/23 16:31:14;;;;;;;7.72;5.03;;;23.30;99.90;;;;;;6043448;29;89308;-96
2022/10/23 16:34:17;;;;;;;8.07;4.60;;;23.20;99.90;;;;;;6042544;28;89373;-96
2022/10/23 16:37:20;;;;;;;7.78;5.28;;;23.20;99.90;;;;;;6042939;28;90140;-96
2022/10/23 16:40:23;;;;;;;8.95;5.68;;;23.20;99.90;;;;;;6046102;28;87846;-96
2022/10/23 16:43:25;;;;;;;10.57;5.43;;;23.30;99.90;;;;;;6044736;28;88651;-96
2022/10/23 16:46:39;;;;;;;8.40;5.43;;;23.20;99.90;;;;;;6045732;28;88066;-96
2022/10/23 16:49:44;;;;;;;9.85;5.65;;;23.20;99.90;;;;;;6047367;28;92091;-96
2022/10/23 16:52:48;;;;;;;10.10;5.88;;;23.20;99.90;;;;;;6044356;28;88374;-96
2022/10/23 16:55:51;;;;;;;11.27;5.60;;;23.20;99.90;;;;;;6045088;28;87398;-96
2022/10/23 16:58:53;;;;;;;9.35;5.82;;;23.20;99.90;;;;;;6045471;28;87237;-96
2022/10/23 17:01:58;;;;;;;10.57;5.63;;;23.20;99.90;;;;;;6043480;29;88359;-96
2022/10/23 17:05:01;;;;;;;10.07;6.00;;;23.20;99.90;;;;;;6044885;29;87414;-96
2022/10/23 17:08:04;;;;;;;9.00;5.72;;;23.20;99.90;;;;;;6043825;28;90302;-96
2022/10/23 17:11:09;;;;;;;8.63;5.97;;;23.20;99.90;;;;;;6042948;28;88544;-96
2022/10/23 17:14:19;;;;;;;10.20;5.93;;;23.10;99.90;;;;;;6042736;28;88585;-96
2022/10/23 17:17:24;;;;;;;11.05;6.30;;;23.10;99.90;;;;;;6044436;28;87976;-96
2022/10/23 17:20:26;;;;;;;9.85;6.00;;;23.10;99.90;;;;;;6042763;28;88107;-96
2022/10/23 17:23:40;;;;;;;9.85;6.05;;;23.10;99.90;;;;;;6042135;28;88708;-96
2022/10/23 17:26:45;;;;;;;9.32;5.72;;;23.10;99.90;;;;;;6042604;28;88386;-96
2022/10/23 17:29:49;;;;;;;9.45;5.50;;;23.20;99.90;;;;;;6046111;28;87774;-95
2022/10/23 17:32:54;;;;;;;30.02;13.25;;;23.20;99.90;;;;;;6049050;28;87975;-96
2022/10/23 17:36:01;;;;;;;51.30;19.23;;;23.10;99.90;;;;;;6042598;28;87311;-96
2022/10/23 17:39:05;;;;;;;12.82;7.32;;;23.30;99.90;;;;;;6043131;28;90401;-96
2022/10/23 17:42:09;;;;;;;9.75;5.65;;;23.30;99.90;;;;;;6042353;29;88330;-96
2022/10/23 17:45:18;;;;;;;10.32;5.80;;;23.30;99.90;;;;;;6041996;28;87724;-96
2022/10/23 17:48:23;;;;;;;7.20;5.43;;;23.30;99.90;;;;;;6042359;28;89161;-96
2022/10/23 17:54:54;;;;;;;10.38;6.47;;;23.30;99.90;;;;;;6043007;29;87569;-96
2022/10/23 17:57:58;;;;;;;8.48;6.03;;;23.30;99.90;;;;;;6040386;28;88521;-96
2022/10/23 18:01:06;;;;;;;7.45;5.45;;;23.30;99.90;;;;;;6044098;28;87228;-96
2022/10/23 18:07:59;;;;;;;8.02;6.03;;;23.20;99.90;;;;;;6045366;28;89601;-96
2022/10/23 18:11:04;;;;;;;7.88;6.35;;;23.20;99.90;;;;;;6042097;28;89320;-96
2022/10/23 18:17:25;;;;;;;6.97;6.28;;;23.20;99.90;;;;;;6048073;29;87239;-96
2022/10/23 18:27:44;;;;;;;6.68;5.97;;;23.10;99.90;;;;;;6050823;29;90728;-96
2022/10/23 18:30:51;;;;;;;8.77;7.88;;;23.10;99.90;;;;;;6045143;28;87147;-96
2022/10/23 18:34:00;;;;;;;9.20;8.27;;;23.10;99.90;;;;;;6047570;28;86340;-96
2022/10/23 18:37:07;;;;;;;8.95;7.47;;;23.10;99.90;;;;;;6043040;29;87216;-96
2022/10/23 18:40:13;;;;;;;8.95;7.45;;;23.10;99.90;;;;;;6052345;29;87182;-96
2022/10/23 18:43:24;;;;;;;8.45;7.05;;;23.10;99.90;;;;;;6047183;29;88385;-96
2022/10/23 18:46:28;;;;;;;7.75;6.90;;;23.10;99.90;;;;;;6040264;29;88208;-96
2022/10/23 18:49:32;;;;;;;7.57;6.88;;;23.10;99.90;;;;;;6044440;28;87135;-96
2022/10/23 18:52:46;;;;;;;7.75;7.05;;;23.10;99.90;;;;;;6043964;29;90837;-96
2022/10/23 18:59:15;;;;;;;8.77;7.30;;;23.10;99.90;;;;;;6048502;28;87960;-96
2022/10/23 19:05:36;;;;;;;8.40;7.50;;;23.10;99.90;;;;;;6052753;29;86650;-96
2022/10/23 19:08:43;;;;;;;8.50;7.50;;;23.10;99.90;;;;;;6046501;29;88046;-96
2022/10/23 19:11:47;;;;;;;8.40;7.60;;;23.10;99.90;;;;;;6046326;28;87492;-96
2022/10/23 19:15:07;;;;;;;8.77;7.88;;;23.10;99.90;;;;;;6050432;28;89070;-96
2022/10/23 19:18:10;;;;;;;10.02;8.38;;;23.10;99.90;;;;;;6047555;28;88353;-96
2022/10/23 19:24:38;;;;;;;8.80;7.72;;;23.10;99.90;;;;;;6052354;29;90252;-96
2022/10/23 19:27:44;;;;;;;8.98;8.07;;;23.10;99.90;;;;;;6049968;28;88323;-96
2022/10/23 19:35:08;;;;;;;8.82;7.93;;;23.10;99.90;;;;;;6053345;29;90714;-96
2022/10/23 19:57:14;;;;;;;10.73;9.70;;;23.10;99.90;;;;;;6318715;27;80229;-65
2022/10/23 20:00:19;;;;;;;10.20;9.20;;;23.20;99.90;;;;;;6279469;27;80267;-65
2022/10/23 20:03:22;;;;;;;11.20;10.10;;;23.10;99.90;;;;;;6287292;27;81119;-65
2022/10/23 20:06:27;;;;;;;10.70;9.70;;;23.20;99.90;;;;;;6276516;27;82848;-67
2022/10/23 20:09:30;;;;;;;11.23;10.13;;;23.10;99.90;;;;;;6290271;27;82471;-66
2022/10/23 20:12:34;;;;;;;10.02;9.13;;;23.10;99.90;;;;;;6276644;27;82706;-65
2022/10/23 20:15:37;;;;;;;10.60;9.60;;;23.10;99.90;;;;;;6277419;27;81315;-64
2022/10/23 20:18:41;;;;;;;11.10;10.02;;;23.10;99.90;;;;;;6277702;27;82484;-64
2022/10/23 20:21:46;;;;;;;12.13;10.93;;;23.10;99.90;;;;;;6264290;27;82866;-65
2022/10/23 20:24:59;;;;;;;11.98;10.77;;;23.10;99.90;;;;;;6270699;27;83385;-65
2022/10/23 20:28:04;;;;;;;12.50;11.20;;;23.10;99.90;;;;;;6262949;27;82737;-65
2022/10/23 20:31:07;;;;;;;11.98;10.77;;;23.10;99.90;;;;;;6276675;27;82779;-64
2022/10/23 20:34:13;;;;;;;12.25;11.05;;;23.10;99.90;;;;;;6276597;27;82867;-65
2022/10/23 20:37:16;;;;;;;12.05;10.85;;;23.10;99.90;;;;;;6275999;27;83144;-65
2022/10/23 20:40:20;;;;;;;12.32;11.00;;;23.10;99.90;;;;;;6276016;27;82827;-65
2022/10/23 20:43:24;;;;;;;12.48;11.27;;;23.10;99.90;;;;;;6277875;27;82725;-65
2022/10/23 20:46:27;;;;;;;12.55;11.35;;;23.10;99.90;;;;;;6270649;27;82796;-65
2022/10/23 20:49:29;;;;;;;12.77;11.45;;;23.10;99.90;;;;;;6269587;27;82750;-65
2022/10/23 20:52:31;;;;;;;11.70;10.60;;;23.00;99.90;;;;;;6270039;27;84595;-64
2022/10/23 20:55:34;;;;;;;12.13;11.00;;;23.00;99.90;;;;;;6263854;27;83206;-65
2022/10/23 20:58:38;;;;;;;12.98;11.77;;;23.00;99.90;;;;;;6275819;27;83225;-65
2022/10/23 21:01:41;;;;;;;12.88;11.57;;;23.10;99.90;;;;;;6281873;27;82883;-65
2022/10/23 21:04:43;;;;;;;13.00;11.70;;;23.00;99.90;;;;;;6275913;27;82897;-65
2022/10/23 21:07:46;;;;;;;13.82;11.27;;;23.00;99.90;;;;;;6265905;27;84385;-65
2022/10/23 21:10:48;;;;;;;13.25;11.95;;;23.00;99.90;;;;;;6261527;27;82727;-65
2022/10/23 21:13:51;;;;;;;12.63;11.43;;;23.00;99.90;;;;;;6261778;27;85558;-65
2022/10/23 21:16:53;;;;;;;12.93;11.73;;;23.00;99.90;;;;;;6261700;27;82884;-64
2022/10/23 21:19:55;;;;;;;12.98;11.68;;;23.00;99.90;;;;;;6260261;27;82818;-65
2022/10/23 21:22:57;;;;;;;13.45;12.13;;;22.90;99.90;;;;;;6250274;27;83482;-65